createdAt,value
2023-02-26T00:01:52.868Z,2.20
2023-02-26T00:04:22.793Z,1.50
2023-02-26T00:06:55.650Z,1.58
2023-02-26T00:09:27.888Z,0.90
2023-02-26T00:11:56.191Z,1.15
2023-02-26T00:14:26.185Z,1.10
2023-02-26T00:17:11.441Z,0.80
2023-02-26T00:19:39.729Z,0.93
2023-02-26T00:22:10.352Z,0.93
2023-02-26T00:24:41.011Z,1.00
2023-02-26T00:27:08.809Z,0.60
2023-02-26T00:29:40.911Z,1.00
2023-02-26T00:32:12.020Z,1.50
2023-02-26T00:34:42.584Z,1.00
2023-02-26T00:37:25.442Z,1.20
2023-02-26T00:40:06.434Z,1.03
2023-02-26T00:42:36.578Z,1.00
2023-02-26T00:45:07.320Z,1.20
2023-02-26T00:47:46.208Z,1.20
2023-02-26T00:50:19.630Z,1.20
2023-02-26T00:53:04.653Z,0.97
2023-02-26T00:55:34.681Z,0.93
2023-02-26T00:58:02.414Z,1.02
2023-02-26T01:00:33.770Z,0.97
2023-02-26T01:03:04.672Z,0.87
2023-02-26T01:05:35.253Z,0.73
2023-02-26T01:08:15.613Z,1.17
2023-02-26T01:10:43.989Z,1.10
2023-02-26T01:13:14.794Z,1.00
2023-02-26T01:15:51.682Z,1.57
2023-02-26T01:18:26.218Z,1.00
2023-02-26T01:21:00.111Z,1.27
2023-02-26T01:23:33.444Z,1.00
2023-02-26T01:26:10.139Z,0.93
2023-02-26T01:28:38.581Z,1.33
2023-02-26T01:31:18.360Z,0.93
2023-02-26T01:33:51.000Z,1.15
2023-02-26T01:36:24.827Z,1.17
2023-02-26T01:39:01.144Z,0.90
2023-02-26T01:41:36.125Z,1.10
2023-02-26T01:44:15.608Z,0.97
2023-02-26T01:47:01.315Z,0.95
2023-02-26T01:49:29.761Z,0.90
2023-02-26T01:52:00.825Z,1.17
2023-02-26T01:54:33.800Z,0.90
2023-02-26T01:57:08.305Z,0.97
2023-02-26T01:59:42.007Z,0.80
2023-02-26T02:02:15.382Z,0.90
2023-02-26T02:04:45.232Z,0.80
2023-02-26T02:07:15.330Z,0.70
2023-02-26T02:09:43.721Z,0.77
2023-02-26T02:12:25.786Z,0.80
2023-02-26T02:15:03.649Z,0.70
2023-02-26T02:17:48.500Z,0.60
2023-02-26T02:20:45.431Z,0.70
2023-02-26T02:23:18.790Z,0.70
2023-02-26T02:26:34.397Z,0.93
2023-02-26T02:29:31.044Z,1.03
2023-02-26T02:32:05.867Z,1.07
2023-02-26T02:34:42.967Z,1.03
2023-02-26T02:37:17.375Z,0.70
2023-02-26T02:39:53.075Z,0.80
2023-02-26T02:42:27.826Z,0.80
2023-02-26T02:45:02.218Z,1.17
2023-02-26T02:47:36.195Z,0.60
2023-02-26T02:50:13.026Z,1.37
2023-02-26T02:52:46.518Z,1.10
2023-02-26T02:55:23.977Z,0.90
2023-02-26T02:57:59.558Z,1.03
2023-02-26T03:00:33.390Z,1.10
2023-02-26T03:03:10.425Z,0.90
2023-02-26T03:05:42.183Z,0.90
2023-02-26T03:08:13.440Z,0.63
2023-02-26T03:10:46.176Z,1.67
2023-02-26T03:13:18.586Z,0.80
2023-02-26T03:15:56.292Z,0.80
2023-02-26T03:18:39.931Z,0.73
2023-02-26T03:21:15.752Z,0.57
2023-02-26T03:23:49.435Z,0.80
2023-02-26T03:26:27.515Z,1.03
2023-02-26T03:29:02.297Z,0.80
2023-02-26T03:31:38.438Z,0.77
2023-02-26T03:34:13.435Z,0.80
2023-02-26T03:36:49.651Z,0.80
2023-02-26T03:39:22.255Z,0.60
2023-02-26T03:41:59.691Z,0.90
2023-02-26T03:44:33.282Z,0.80
2023-02-26T03:47:10.123Z,1.30
2023-02-26T03:49:43.661Z,0.70
2023-02-26T03:52:15.243Z,0.80
2023-02-26T03:54:47.050Z,1.00
2023-02-26T03:57:19.040Z,1.00
2023-02-26T03:59:46.805Z,1.00
2023-02-26T04:02:17.556Z,0.73
2023-02-26T04:04:52.758Z,0.80
2023-02-26T04:07:22.324Z,0.90
2023-02-26T04:09:53.356Z,0.90
2023-02-26T04:12:24.945Z,0.90
2023-02-26T04:14:55.874Z,0.93
2023-02-26T04:17:25.823Z,0.80
2023-02-26T04:19:55.042Z,1.00
2023-02-26T04:22:22.918Z,0.80
2023-02-26T04:24:52.909Z,0.83
2023-02-26T04:27:22.669Z,0.85
2023-02-26T04:29:52.495Z,0.90
2023-02-26T04:32:22.517Z,0.80
2023-02-26T04:34:50.336Z,0.80
2023-02-26T04:37:19.454Z,0.90
2023-02-26T04:39:49.346Z,0.60
2023-02-26T04:42:17.235Z,0.90
2023-02-26T04:44:45.002Z,0.93
2023-02-26T04:47:14.912Z,0.87
2023-02-26T04:49:44.599Z,0.90
2023-02-26T04:52:26.277Z,0.80
2023-02-26T04:54:59.248Z,0.90
2023-02-26T04:57:27.055Z,1.10
2023-02-26T04:59:54.789Z,0.83
2023-02-26T05:02:26.708Z,0.60
2023-02-26T05:04:54.446Z,0.70
2023-02-26T05:07:22.288Z,0.60
2023-02-26T05:09:54.047Z,0.80
2023-02-26T05:12:23.150Z,0.83
2023-02-26T05:14:50.949Z,0.50
2023-02-26T05:17:22.862Z,0.60
2023-02-26T05:19:59.373Z,0.70
2023-02-26T05:22:31.247Z,0.90
2023-02-26T05:24:58.927Z,0.67
2023-02-26T05:27:28.025Z,0.90
2023-02-26T05:30:00.385Z,1.00
2023-02-26T05:32:28.687Z,0.70
2023-02-26T05:34:56.498Z,0.60
2023-02-26T05:37:26.446Z,1.40
2023-02-26T05:39:54.233Z,0.70
2023-02-26T05:42:21.891Z,1.03
2023-02-26T05:44:53.244Z,1.00
2023-02-26T05:47:21.097Z,0.63
2023-02-26T05:49:51.116Z,0.53
2023-02-26T05:52:20.804Z,0.80
2023-02-26T05:54:48.509Z,0.77
2023-02-26T05:57:18.318Z,0.70
2023-02-26T05:59:56.895Z,0.73
2023-02-26T06:02:28.240Z,0.83
2023-02-26T06:05:00.284Z,0.80
2023-02-26T06:07:27.992Z,0.67
2023-02-26T06:09:55.817Z,0.60
2023-02-26T06:12:27.650Z,0.70
2023-02-26T06:14:55.351Z,0.50
2023-02-26T06:17:23.046Z,0.90
2023-02-26T06:20:01.973Z,0.80
2023-02-26T06:22:29.721Z,0.80
2023-02-26T06:25:00.019Z,0.70
2023-02-26T06:27:29.669Z,0.90
2023-02-26T06:29:57.420Z,0.70
2023-02-26T06:32:32.224Z,0.70
2023-02-26T06:35:01.554Z,0.50
2023-02-26T06:37:29.311Z,0.60
2023-02-26T06:39:58.925Z,0.70
2023-02-26T06:42:28.728Z,0.85
2023-02-26T06:44:57.187Z,0.80
2023-02-26T06:47:26.932Z,0.50
2023-02-26T06:49:56.740Z,0.73
2023-02-26T06:52:26.250Z,0.50
2023-02-26T06:54:55.873Z,1.42
2023-02-26T06:57:31.871Z,1.33
2023-02-26T07:00:02.973Z,0.80
2023-02-26T07:02:30.756Z,0.80
2023-02-26T07:05:00.809Z,0.70
2023-02-26T07:07:30.090Z,0.90
2023-02-26T07:09:57.872Z,0.70
2023-02-26T07:12:27.859Z,1.10
2023-02-26T07:15:00.661Z,0.63
2023-02-26T07:17:28.477Z,0.70
2023-02-26T07:19:58.416Z,0.80
2023-02-26T07:22:31.661Z,0.45
2023-02-26T07:25:00.377Z,0.70
2023-02-26T07:27:29.953Z,0.30
2023-02-26T07:30:01.812Z,0.40
2023-02-26T07:32:29.681Z,0.60
2023-02-26T07:34:57.634Z,0.43
2023-02-26T07:37:33.260Z,1.00
2023-02-26T07:40:01.273Z,0.53
2023-02-26T07:42:29.051Z,0.60
2023-02-26T07:45:15.878Z,0.60
2023-02-26T07:47:43.570Z,0.50
2023-02-26T07:50:12.861Z,0.60
2023-02-26T07:52:46.124Z,0.43
2023-02-26T07:55:14.152Z,0.67
2023-02-26T07:57:42.289Z,0.80
2023-02-26T08:00:13.810Z,0.53
2023-02-26T08:02:41.845Z,0.90
2023-02-26T08:05:09.963Z,0.70
2023-02-26T08:07:40.323Z,0.37
2023-02-26T08:10:11.128Z,0.40
2023-02-26T08:12:43.989Z,0.60
2023-02-26T08:15:14.463Z,0.60
2023-02-26T08:20:15.387Z,0.50
2023-02-26T08:22:50.606Z,0.70
2023-02-26T08:25:21.868Z,0.80
2023-02-26T08:27:52.847Z,0.77
2023-02-26T08:30:20.883Z,0.40
2023-02-26T08:32:50.010Z,0.33
2023-02-26T08:35:18.125Z,0.57
2023-02-26T08:37:45.960Z,0.60
2023-02-26T08:40:16.773Z,0.47
2023-02-26T08:42:45.851Z,0.40
2023-02-26T08:45:14.196Z,0.43
2023-02-26T08:47:56.069Z,0.70
2023-02-26T08:50:27.181Z,0.47
2023-02-26T08:52:59.384Z,0.60
2023-02-26T08:55:27.274Z,0.57
2023-02-26T08:57:56.447Z,0.63
2023-02-26T09:00:28.310Z,0.60
2023-02-26T09:02:56.080Z,0.50
2023-02-26T09:05:23.957Z,0.50
2023-02-26T09:07:56.229Z,0.60
2023-02-26T09:10:24.327Z,0.70
2023-02-26T09:12:52.274Z,0.70
2023-02-26T09:15:23.912Z,0.50
2023-02-26T09:17:58.019Z,0.47
2023-02-26T09:20:30.237Z,0.60
2023-02-26T09:23:06.902Z,0.53
2023-02-26T09:25:38.950Z,0.40
2023-02-26T09:28:07.632Z,0.73
2023-02-26T09:30:36.780Z,0.60
2023-02-26T09:33:04.710Z,0.80
2023-02-26T09:35:32.401Z,0.77
2023-02-26T09:38:00.129Z,0.50
2023-02-26T09:40:40.997Z,0.43
2023-02-26T09:43:24.870Z,0.83
2023-02-26T09:46:00.436Z,0.70
2023-02-26T09:48:30.158Z,0.63
2023-02-26T09:50:59.886Z,1.95
2023-02-26T09:53:33.350Z,0.70
2023-02-26T09:56:16.874Z,0.93
2023-02-26T09:58:48.166Z,0.97
2023-02-26T10:01:34.210Z,1.23
2023-02-26T10:04:18.256Z,1.33
2023-02-26T10:07:05.260Z,1.60
2023-02-26T10:09:48.976Z,1.50
2023-02-26T10:12:20.241Z,0.90
2023-02-26T10:14:55.707Z,5.83
2023-02-26T10:17:34.155Z,1.30
2023-02-26T10:20:13.915Z,1.37
2023-02-26T10:22:49.240Z,1.02
2023-02-26T10:25:22.188Z,0.83
2023-02-26T10:27:57.865Z,1.20
2023-02-26T10:30:35.889Z,1.10
2023-02-26T10:33:15.290Z,1.10
2023-02-26T10:35:52.188Z,0.87
2023-02-26T10:38:26.661Z,0.93
2023-02-26T10:40:59.500Z,0.90
2023-02-26T10:43:32.718Z,1.30
2023-02-26T10:46:21.963Z,1.97
2023-02-26T10:49:19.591Z,0.80
2023-02-26T10:51:49.748Z,0.93
2023-02-26T10:54:23.403Z,0.70
2023-02-26T10:56:51.314Z,1.03
2023-02-26T10:59:19.260Z,0.80
2023-02-26T11:01:48.266Z,0.80
2023-02-26T11:04:24.526Z,0.73
2023-02-26T11:06:56.280Z,0.63
2023-02-26T11:09:29.688Z,0.87
2023-02-26T11:12:05.288Z,1.00
2023-02-26T11:14:36.189Z,0.80
2023-02-26T11:17:10.690Z,0.87
2023-02-26T11:20:10.822Z,0.77
2023-02-26T11:22:39.741Z,0.85
2023-02-26T11:25:15.333Z,0.80
2023-02-26T11:28:00.679Z,1.80
2023-02-26T11:30:36.841Z,1.27
2023-02-26T11:33:18.190Z,1.03
2023-02-26T11:35:48.528Z,2.43
2023-02-26T11:38:21.529Z,0.50
2023-02-26T11:40:57.915Z,0.70
2023-02-26T11:43:34.613Z,0.70
2023-02-26T11:46:05.942Z,1.93
2023-02-26T11:48:41.681Z,1.00
2023-02-26T11:51:16.493Z,0.70
2023-02-26T11:53:54.410Z,0.50
2023-02-26T11:56:29.965Z,0.50
2023-02-26T11:59:01.783Z,0.87
2023-02-26T12:01:30.943Z,0.60
2023-02-26T12:04:03.677Z,0.50
2023-02-26T12:06:33.325Z,0.60
2023-02-26T12:09:01.056Z,0.60
2023-02-26T12:11:46.416Z,1.17
2023-02-26T12:14:36.568Z,0.33
2023-02-26T12:17:16.418Z,0.50
2023-02-26T12:19:50.062Z,0.50
2023-02-26T12:22:37.649Z,0.40
2023-02-26T12:25:40.733Z,0.40
2023-02-26T12:28:32.908Z,0.37
2023-02-26T12:31:31.468Z,0.20
2023-02-26T12:34:17.285Z,0.27
2023-02-26T12:36:58.902Z,0.20
2023-02-26T12:39:46.349Z,0.47
2023-02-26T12:42:30.532Z,0.23
2023-02-26T12:45:15.876Z,0.20
2023-02-26T12:47:58.357Z,0.53
2023-02-26T12:50:44.387Z,0.37
2023-02-26T12:53:36.907Z,0.30
2023-02-26T12:56:29.924Z,0.40
2023-02-26T12:59:15.995Z,0.57
2023-02-26T13:02:01.746Z,1.10
2023-02-26T13:04:53.033Z,0.53
2023-02-26T13:07:51.639Z,0.50
2023-02-26T13:10:28.266Z,0.47
2023-02-26T13:13:13.336Z,0.40
2023-02-26T13:16:00.437Z,0.57
2023-02-26T13:18:39.657Z,0.50
2023-02-26T13:21:12.293Z,0.70
2023-02-26T13:23:50.837Z,0.60
2023-02-26T13:26:21.843Z,0.60
2023-02-26T13:28:58.828Z,0.40
2023-02-26T13:31:31.236Z,0.40
2023-02-26T13:34:14.648Z,0.20
2023-02-26T13:36:43.471Z,0.30
2023-02-26T13:39:30.305Z,0.40
2023-02-26T13:42:02.929Z,0.50
2023-02-26T13:44:41.796Z,0.23
2023-02-26T13:47:46.184Z,0.47
2023-02-26T13:50:28.473Z,0.30
2023-02-26T13:52:57.629Z,0.73
2023-02-26T13:55:46.664Z,0.60
2023-02-26T13:58:19.792Z,0.50
2023-02-26T14:01:04.317Z,0.40
2023-02-26T14:03:34.524Z,0.30
2023-02-26T14:06:26.137Z,0.30
2023-02-26T14:08:56.719Z,0.70
2023-02-26T14:12:01.171Z,0.47
2023-02-26T14:14:36.680Z,0.60
2023-02-26T14:17:33.931Z,0.40
2023-02-26T14:20:24.171Z,0.47
2023-02-26T14:23:02.662Z,0.32
2023-02-26T14:25:35.865Z,0.60
2023-02-26T14:28:35.858Z,0.70
2023-02-26T14:31:26.972Z,0.60
2023-02-26T14:34:18.576Z,0.57
2023-02-26T14:36:51.662Z,0.60
2023-02-26T14:39:39.136Z,0.40
2023-02-26T14:42:12.215Z,0.60
2023-02-26T14:44:47.558Z,0.70
2023-02-26T14:47:15.438Z,0.80
2023-02-26T14:49:51.385Z,0.40
2023-02-26T14:52:37.064Z,0.73
2023-02-26T14:55:30.594Z,0.50
2023-02-26T14:58:13.214Z,0.70
2023-02-26T15:00:51.010Z,0.70
2023-02-26T15:03:41.655Z,0.93
2023-02-26T15:06:25.020Z,0.67
2023-02-26T15:09:04.534Z,0.70
2023-02-26T15:11:50.063Z,0.50
2023-02-26T15:14:39.800Z,0.60
2023-02-26T15:17:21.054Z,0.77
2023-02-26T15:20:05.595Z,0.80
2023-02-26T15:22:51.372Z,0.40
2023-02-26T15:25:28.782Z,0.47
2023-02-26T15:27:59.297Z,0.70
2023-02-26T15:30:34.379Z,0.43
2023-02-26T15:33:09.047Z,0.63
2023-02-26T15:35:39.281Z,0.63
2023-02-26T15:38:12.358Z,0.93
2023-02-26T15:40:42.975Z,0.50
2023-02-26T15:43:16.478Z,0.60
2023-02-26T15:45:49.447Z,0.57
2023-02-26T15:48:23.251Z,0.90
2023-02-26T15:50:55.838Z,2.87
2023-02-26T15:53:32.447Z,1.80
2023-02-26T15:56:07.636Z,1.23
2023-02-26T15:58:41.059Z,1.10
2023-02-26T16:01:17.144Z,0.70
2023-02-26T16:03:45.134Z,1.70
2023-02-26T16:06:19.362Z,1.30
2023-02-26T16:08:50.328Z,1.17
2023-02-26T16:11:22.624Z,0.93
2023-02-26T16:13:53.912Z,2.30
2023-02-26T16:16:30.425Z,1.80
2023-02-26T16:18:59.168Z,1.70
2023-02-26T16:21:33.318Z,1.37
2023-02-26T16:24:06.449Z,1.13
2023-02-26T16:26:39.915Z,0.87
2023-02-26T16:29:14.511Z,1.47
2023-02-26T16:31:47.328Z,1.27
2023-02-26T16:34:27.405Z,1.47
2023-02-26T16:36:57.641Z,1.77
2023-02-26T16:39:31.457Z,1.10
2023-02-26T16:42:09.807Z,1.87
2023-02-26T16:44:52.953Z,2.10
2023-02-26T16:47:32.135Z,2.60
2023-02-26T16:50:01.852Z,2.20
2023-02-26T16:52:32.242Z,1.88
2023-02-26T16:57:37.871Z,1.40
2023-02-26T17:00:13.092Z,1.57
2023-02-26T17:02:44.408Z,1.67
2023-02-26T17:05:22.593Z,1.50
2023-02-26T17:07:56.794Z,1.70
2023-02-26T17:10:48.414Z,2.13
2023-02-26T17:13:18.353Z,1.90
2023-02-26T17:15:49.236Z,2.13
2023-02-26T17:18:19.221Z,2.37
2023-02-26T17:20:47.888Z,2.83
2023-02-26T17:23:18.349Z,2.60
2023-02-26T17:25:54.062Z,2.15
2023-02-26T17:28:24.894Z,2.00
2023-02-26T17:30:53.506Z,2.50
2023-02-26T17:33:21.651Z,2.10
2023-02-26T17:35:52.391Z,2.60
2023-02-26T17:38:22.548Z,2.47
2023-02-26T17:40:54.423Z,1.85
2023-02-26T17:43:24.578Z,2.33
2023-02-26T17:45:53.253Z,2.25
2023-02-26T17:48:23.105Z,1.80
2023-02-26T17:50:52.752Z,1.83
2023-02-26T17:53:27.558Z,2.10
2023-02-26T17:55:57.475Z,2.20
2023-02-26T17:58:31.504Z,2.13
2023-02-26T18:00:59.352Z,2.20
2023-02-26T18:03:27.450Z,2.50
2023-02-26T18:05:58.909Z,2.50
2023-02-26T18:08:28.791Z,2.63
2023-02-26T18:10:58.787Z,2.90
2023-02-26T18:13:29.039Z,2.92
2023-02-26T18:16:00.999Z,3.33
2023-02-26T18:18:29.883Z,3.77
2023-02-26T18:20:57.710Z,3.30
2023-02-26T18:23:27.784Z,4.60
2023-02-26T18:25:57.483Z,3.90
2023-02-26T18:28:29.078Z,4.47
2023-02-26T18:30:59.679Z,4.43
2023-02-26T18:33:27.766Z,4.43
2023-02-26T18:36:00.048Z,4.70
2023-02-26T18:38:29.029Z,5.00
2023-02-26T18:40:58.728Z,6.03
2023-02-26T18:43:28.032Z,6.45
2023-02-26T18:46:01.537Z,6.13
2023-02-26T18:48:29.710Z,6.93
2023-02-26T18:50:57.460Z,6.87
2023-02-26T18:53:35.783Z,5.93
2023-02-26T18:56:05.318Z,5.80
2023-02-26T18:58:35.429Z,4.80
2023-02-26T19:01:04.898Z,4.90
2023-02-26T19:03:32.848Z,5.05
2023-02-26T19:06:03.379Z,4.50
2023-02-26T19:10:59.370Z,3.90
2023-02-26T19:13:29.066Z,3.70
2023-02-26T19:15:58.855Z,3.53
2023-02-26T19:18:26.716Z,3.80
2023-02-26T19:20:57.219Z,4.27
2023-02-26T19:23:26.894Z,4.90
2023-02-26T19:25:54.786Z,4.47
2023-02-26T19:28:25.293Z,4.13
2023-02-26T19:30:57.982Z,4.37
2023-02-26T19:33:28.194Z,4.57
2023-02-26T19:35:55.940Z,4.13
2023-02-26T19:38:26.113Z,4.10
2023-02-26T19:40:56.194Z,4.15
2023-02-26T19:43:23.968Z,3.40
2023-02-26T19:45:54.367Z,3.30
2023-02-26T19:50:58.079Z,3.80
2023-02-26T19:53:26.251Z,3.20
2023-02-26T19:55:54.093Z,4.00
2023-02-26T19:58:24.054Z,4.33
2023-02-26T20:00:55.051Z,5.63
2023-02-26T20:03:24.622Z,5.00
2023-02-26T20:05:53.726Z,5.00
2023-02-26T20:08:22.734Z,5.03
2023-02-26T20:10:51.523Z,5.17
2023-02-26T20:13:22.623Z,5.60
2023-02-26T20:15:53.535Z,4.90
2023-02-26T20:18:21.567Z,5.57
2023-02-26T20:20:55.301Z,5.87
2023-02-26T20:23:23.133Z,5.37
2023-02-26T20:25:56.625Z,4.77
2023-02-26T20:28:27.278Z,4.90
2023-02-26T20:30:57.197Z,4.60
2023-02-26T20:33:25.171Z,4.03
2023-02-26T20:35:57.900Z,4.90
2023-02-26T20:38:28.984Z,4.90
2023-02-26T20:41:03.052Z,4.67
2023-02-26T20:43:31.116Z,5.23
2023-02-26T20:45:59.474Z,6.23
2023-02-26T20:48:31.557Z,5.17
2023-02-26T20:51:01.937Z,6.10
2023-02-26T20:56:06.646Z,5.17
2023-02-26T20:58:34.547Z,5.53
2023-02-26T21:01:02.439Z,5.70
2023-02-26T21:03:32.486Z,4.80
2023-02-26T21:06:01.707Z,5.40
2023-02-26T21:08:31.375Z,5.47
2023-02-26T21:11:01.851Z,4.03
2023-02-26T21:13:29.617Z,4.47
2023-02-26T21:15:59.437Z,3.83
2023-02-26T21:18:29.557Z,3.70
2023-02-26T21:20:57.304Z,4.20
2023-02-26T21:23:33.703Z,4.10
2023-02-26T21:26:01.452Z,3.03
2023-02-26T21:28:29.164Z,3.60
2023-02-26T21:33:40.999Z,3.40
2023-02-26T21:36:15.317Z,3.67
2023-02-26T21:38:44.479Z,3.00
2023-02-26T21:41:12.690Z,3.17
2023-02-26T21:43:40.662Z,3.33
2023-02-26T21:46:08.434Z,3.37
2023-02-26T21:48:39.251Z,4.13
2023-02-26T21:51:07.410Z,3.40
2023-02-26T21:53:35.389Z,3.27
2023-02-26T21:56:06.973Z,3.30
2023-02-26T21:58:35.507Z,3.90
2023-02-26T22:01:13.285Z,3.70
2023-02-26T22:03:41.620Z,3.43
2023-02-26T22:06:09.364Z,3.30
2023-02-26T22:08:39.761Z,3.30
2023-02-26T22:13:37.114Z,4.10
2023-02-26T22:16:05.642Z,3.67
2023-02-26T22:18:33.624Z,4.00
2023-02-26T22:21:01.372Z,3.20
2023-02-26T22:23:31.566Z,2.80
2023-02-26T22:26:01.359Z,3.38
2023-02-26T22:28:30.650Z,3.55
2023-02-26T22:30:59.898Z,3.10
2023-02-26T22:33:29.882Z,3.57
2023-02-26T22:35:58.675Z,3.75
2023-02-26T22:38:28.917Z,4.10
2023-02-26T22:40:58.843Z,4.28
2023-02-26T22:43:26.786Z,4.43
2023-02-26T22:45:57.837Z,4.60
2023-02-26T22:48:25.722Z,5.23
2023-02-26T22:50:53.506Z,5.37
2023-02-26T22:53:23.487Z,5.27
2023-02-26T22:55:59.103Z,4.78
2023-02-26T22:58:29.503Z,5.60
2023-02-26T23:03:35.131Z,5.70
2023-02-26T23:06:03.103Z,5.97
2023-02-26T23:08:32.972Z,6.57
2023-02-26T23:11:04.420Z,5.97
2023-02-26T23:13:37.693Z,6.10
2023-02-26T23:16:11.417Z,7.07
2023-02-26T23:18:43.756Z,7.00
2023-02-26T23:21:16.775Z,6.47
2023-02-26T23:23:46.918Z,7.13
2023-02-26T23:26:15.444Z,6.18
2023-02-26T23:29:02.414Z,5.53
2023-02-26T23:31:31.934Z,5.50
2023-02-26T23:34:06.536Z,4.68
2023-02-26T23:36:34.472Z,4.40
2023-02-26T23:39:05.222Z,4.10
2023-02-26T23:41:35.150Z,3.63
2023-02-26T23:44:05.387Z,2.28
2023-02-26T23:46:34.773Z,2.63
2023-02-26T23:49:04.535Z,2.25
2023-02-26T23:51:34.805Z,2.33
2023-02-26T23:56:32.786Z,2.23
